createdAt,value
2018-11-05T00:00:04.927Z,3.70
2018-11-05T00:02:33.754Z,3.40
2018-11-05T00:05:03.773Z,3.50
2018-11-05T00:07:32.583Z,3.90
2018-11-05T00:10:01.403Z,3.40
2018-11-05T00:12:32.292Z,3.67
2018-11-05T00:15:02.620Z,3.90
2018-11-05T00:17:31.486Z,3.60
2018-11-05T00:20:00.302Z,3.80
2018-11-05T00:22:29.136Z,3.67
2018-11-05T00:24:57.967Z,3.87
2018-11-05T00:27:27.251Z,3.70
2018-11-05T00:29:56.071Z,3.90
2018-11-05T00:32:24.888Z,3.73
2018-11-05T00:34:55.375Z,4.03
2018-11-05T00:37:24.183Z,3.80
2018-11-05T00:39:53.007Z,3.77
2018-11-05T00:42:21.847Z,3.80
2018-11-05T00:44:50.825Z,4.10
2018-11-05T00:47:19.698Z,3.67
2018-11-05T00:49:48.542Z,4.37
2018-11-05T00:52:17.591Z,3.70
2018-11-05T00:54:46.401Z,3.97
2018-11-05T00:57:15.520Z,3.63
2018-11-05T00:59:44.955Z,3.57
2018-11-05T01:02:15.328Z,3.57
2018-11-05T01:04:44.110Z,3.77
2018-11-05T01:07:12.964Z,3.97
2018-11-05T01:09:41.782Z,3.97
2018-11-05T01:12:12.464Z,4.27
2018-11-05T01:14:42.954Z,3.47
2018-11-05T01:17:11.846Z,3.40
2018-11-05T01:19:40.634Z,3.30
2018-11-05T01:22:09.450Z,4.33
2018-11-05T01:24:38.258Z,3.90
2018-11-05T01:27:07.202Z,3.80
2018-11-05T01:29:38.150Z,3.50
2018-11-05T01:32:07.032Z,3.90
2018-11-05T01:34:35.899Z,4.00
2018-11-05T01:37:05.021Z,3.57
2018-11-05T01:39:33.824Z,4.00
2018-11-05T01:42:02.759Z,3.37
2018-11-05T01:44:31.604Z,3.77
2018-11-05T01:47:00.422Z,4.07
2018-11-05T01:49:29.239Z,3.57
2018-11-05T01:51:58.667Z,3.70
2018-11-05T01:54:28.187Z,3.97
2018-11-05T01:56:57.007Z,3.77
2018-11-05T01:59:26.166Z,3.80
2018-11-05T02:01:55.003Z,3.83
2018-11-05T02:04:23.823Z,3.80
2018-11-05T02:06:52.693Z,3.90
2018-11-05T02:09:21.519Z,4.17
2018-11-05T02:11:50.342Z,3.83
2018-11-05T02:14:21.378Z,3.93
2018-11-05T02:16:50.194Z,3.70
2018-11-05T02:19:19.518Z,3.83
2018-11-05T02:21:49.339Z,3.27
2018-11-05T02:24:18.340Z,3.60
2018-11-05T02:26:47.124Z,3.97
2018-11-05T02:29:15.950Z,3.93
2018-11-05T02:31:44.773Z,3.87
2018-11-05T02:34:13.648Z,3.67
2018-11-05T02:36:42.504Z,3.33
2018-11-05T02:39:11.379Z,3.80
2018-11-05T02:41:40.279Z,3.80
2018-11-05T02:44:09.767Z,3.70
2018-11-05T02:46:38.856Z,3.77
2018-11-05T02:49:07.689Z,3.80
2018-11-05T02:51:36.555Z,3.40
2018-11-05T02:54:05.475Z,3.73
2018-11-05T02:56:34.313Z,3.57
2018-11-05T02:59:03.443Z,3.60
2018-11-05T03:01:34.047Z,3.87
2018-11-05T03:04:02.949Z,3.87
2018-11-05T03:06:31.920Z,3.87
2018-11-05T03:09:00.829Z,3.53
2018-11-05T03:11:29.616Z,3.80
2018-11-05T03:13:59.735Z,3.53
2018-11-05T03:16:28.537Z,3.60
2018-11-05T03:18:57.367Z,3.87
2018-11-05T03:21:26.260Z,3.80
2018-11-05T03:23:55.098Z,3.87
2018-11-05T03:26:24.003Z,3.50
2018-11-05T03:28:52.835Z,3.47
2018-11-05T03:31:21.780Z,3.67
2018-11-05T03:33:50.632Z,3.77
2018-11-05T03:36:19.954Z,4.10
2018-11-05T03:38:49.344Z,3.60
2018-11-05T03:41:18.188Z,3.80
2018-11-05T03:43:47.015Z,3.30
2018-11-05T03:46:15.905Z,3.50
2018-11-05T03:48:44.751Z,3.67
2018-11-05T03:51:14.927Z,3.70
2018-11-05T03:53:43.787Z,3.70
2018-11-05T03:56:12.673Z,4.40
2018-11-05T03:58:41.478Z,3.60
2018-11-05T04:01:10.311Z,3.70
2018-11-05T04:03:39.224Z,3.97
2018-11-05T04:06:08.203Z,3.60
2018-11-05T04:08:38.919Z,3.30
2018-11-05T04:11:07.750Z,3.33
2018-11-05T04:13:37.375Z,3.60
2018-11-05T04:16:07.888Z,3.63
2018-11-05T04:18:36.693Z,3.83
2018-11-05T04:21:05.589Z,3.30
2018-11-05T04:23:34.434Z,3.80
2018-11-05T04:26:03.440Z,3.63
2018-11-05T04:28:32.319Z,3.40
2018-11-05T04:31:01.223Z,3.67
2018-11-05T04:33:30.084Z,3.27
2018-11-05T04:35:58.981Z,3.83
2018-11-05T04:38:27.980Z,3.40
2018-11-05T04:40:56.948Z,4.20
2018-11-05T04:43:28.396Z,3.80
2018-11-05T04:45:57.228Z,3.60
2018-11-05T04:48:26.226Z,4.00
2018-11-05T04:50:55.109Z,3.57
2018-11-05T04:53:23.955Z,3.20
2018-11-05T04:55:52.899Z,3.57
2018-11-05T04:58:21.763Z,3.83
2018-11-05T05:00:54.196Z,4.03
2018-11-05T05:03:23.202Z,4.00
2018-11-05T05:05:52.334Z,3.90
2018-11-05T05:08:21.213Z,3.40
2018-11-05T05:10:50.097Z,3.50
2018-11-05T05:13:19.623Z,4.00
2018-11-05T05:15:48.518Z,4.40
2018-11-05T05:18:17.397Z,3.60
2018-11-05T05:20:46.335Z,3.53
2018-11-05T05:23:15.185Z,3.80
2018-11-05T05:25:44.123Z,3.53
2018-11-05T05:28:13.339Z,3.60
2018-11-05T05:30:42.221Z,3.50
2018-11-05T05:33:12.771Z,3.67
2018-11-05T05:35:41.525Z,3.60
2018-11-05T05:38:10.386Z,3.67
2018-11-05T05:40:39.307Z,3.40
2018-11-05T05:43:08.167Z,3.57
2018-11-05T05:45:37.218Z,3.80
2018-11-05T05:48:06.425Z,3.70
2018-11-05T05:50:35.264Z,3.67
2018-11-05T05:53:04.135Z,3.63
2018-11-05T05:55:34.572Z,4.10
2018-11-05T05:58:03.610Z,3.77
2018-11-05T06:00:32.428Z,3.70
2018-11-05T06:03:01.304Z,3.50
2018-11-05T06:05:30.140Z,3.60
2018-11-05T06:07:59.036Z,4.17
2018-11-05T06:10:27.900Z,3.63
2018-11-05T06:12:59.307Z,3.77
2018-11-05T06:15:29.103Z,4.07
2018-11-05T06:17:57.989Z,3.67
2018-11-05T06:20:26.850Z,4.27
2018-11-05T06:22:59.196Z,3.80
2018-11-05T06:25:28.261Z,3.57
2018-11-05T06:27:57.119Z,4.17
2018-11-05T06:30:26.019Z,3.30
2018-11-05T06:32:54.877Z,3.83
2018-11-05T06:35:23.795Z,4.10
2018-11-05T06:37:52.663Z,4.03
2018-11-05T06:40:21.531Z,4.00
2018-11-05T06:42:50.527Z,4.10
2018-11-05T06:45:20.739Z,3.67
2018-11-05T06:47:51.931Z,4.20
2018-11-05T06:50:22.207Z,3.97
2018-11-05T06:52:51.170Z,4.13
2018-11-05T06:55:19.977Z,5.17
2018-11-05T06:57:48.934Z,4.43
2018-11-05T07:00:22.086Z,4.17
2018-11-05T07:02:50.956Z,4.00
2018-11-05T07:05:19.799Z,4.23
2018-11-05T07:07:48.784Z,6.33
2018-11-05T07:10:18.252Z,5.20
2018-11-05T07:12:49.058Z,4.03
2018-11-05T07:15:18.857Z,5.20
2018-11-05T07:17:49.958Z,9.57
2018-11-05T07:20:20.159Z,4.40
2018-11-05T07:22:49.878Z,4.07
2018-11-05T07:25:18.730Z,4.20
2018-11-05T07:27:47.636Z,7.63
2018-11-05T07:30:17.871Z,9.70
2018-11-05T07:32:47.395Z,7.70
2018-11-05T07:35:16.478Z,4.63
2018-11-05T07:37:45.372Z,5.67
2018-11-05T07:40:16.944Z,8.50
2018-11-05T07:42:45.783Z,4.90
2018-11-05T07:45:17.791Z,5.83
2018-11-05T07:47:50.296Z,6.33
2018-11-05T07:50:23.781Z,9.67
2018-11-05T07:52:53.058Z,4.60
2018-11-05T07:55:22.063Z,7.33
2018-11-05T07:57:51.667Z,7.53
2018-11-05T08:00:26.139Z,6.57
2018-11-05T08:02:56.567Z,9.50
2018-11-05T08:05:25.789Z,10.13
2018-11-05T08:07:55.046Z,6.07
2018-11-05T08:10:24.056Z,6.87
2018-11-05T08:12:54.929Z,10.03
2018-11-05T08:15:25.877Z,11.33
2018-11-05T08:17:54.984Z,9.90
2018-11-05T08:20:23.941Z,7.77
2018-11-05T08:22:52.859Z,11.10
2018-11-05T08:25:21.771Z,11.03
2018-11-05T08:27:50.833Z,14.13
2018-11-05T08:30:22.931Z,8.13
2018-11-05T08:32:51.908Z,9.53
2018-11-05T08:35:22.731Z,9.30
2018-11-05T08:37:52.176Z,9.77
2018-11-05T08:40:23.173Z,9.10
2018-11-05T08:42:52.984Z,10.17
2018-11-05T08:45:25.353Z,9.13
2018-11-05T08:47:54.287Z,10.13
2018-11-05T08:50:23.837Z,13.63
2018-11-05T08:52:53.565Z,13.57
2018-11-05T08:55:24.686Z,10.17
2018-11-05T08:57:53.597Z,8.33
2018-11-05T09:00:27.787Z,12.23
2018-11-05T09:02:56.645Z,14.90
2018-11-05T09:05:25.663Z,10.97
2018-11-05T09:07:56.740Z,11.80
2018-11-05T09:10:25.813Z,11.97
2018-11-05T09:12:56.777Z,11.67
2018-11-05T09:15:25.639Z,9.60
2018-11-05T09:17:54.587Z,12.37
2018-11-05T09:20:23.487Z,10.00
2018-11-05T09:22:52.771Z,9.40
2018-11-05T09:25:21.812Z,12.43
2018-11-05T09:27:52.614Z,10.47
2018-11-05T09:30:22.669Z,16.27
2018-11-05T09:32:51.809Z,12.23
2018-11-05T09:35:20.870Z,13.50
2018-11-05T09:37:49.757Z,12.50
2018-11-05T09:40:20.832Z,15.80
2018-11-05T09:42:50.104Z,16.27
2018-11-05T09:45:23.842Z,11.87
2018-11-05T09:47:52.839Z,11.33
2018-11-05T09:50:22.629Z,13.47
2018-11-05T09:52:51.418Z,18.33
2018-11-05T09:55:20.306Z,13.00
2018-11-05T09:57:49.192Z,13.83
2018-11-05T10:00:20.455Z,12.57
2018-11-05T10:02:57.456Z,14.87
2018-11-05T10:05:27.284Z,16.60
2018-11-05T10:07:56.251Z,14.20
2018-11-05T10:10:25.209Z,14.57
2018-11-05T10:12:55.037Z,15.07
2018-11-05T10:15:23.920Z,13.33
2018-11-05T10:17:52.843Z,13.33
2018-11-05T10:20:25.601Z,18.30
2018-11-05T10:22:54.594Z,19.27
2018-11-05T10:25:23.416Z,13.63
2018-11-05T10:27:52.685Z,15.83
2018-11-05T10:30:23.847Z,13.33
2018-11-05T10:32:52.801Z,14.33
2018-11-05T10:35:25.942Z,13.27
2018-11-05T10:37:55.919Z,13.53
2018-11-05T10:40:24.966Z,9.40
2018-11-05T10:42:54.080Z,11.23
2018-11-05T10:45:23.116Z,10.20
2018-11-05T10:47:51.971Z,13.20
2018-11-05T10:50:20.875Z,11.43
2018-11-05T10:52:50.857Z,14.03
2018-11-05T10:55:20.139Z,11.00
2018-11-05T10:57:49.236Z,15.47
2018-11-05T11:00:26.627Z,7.77
2018-11-05T11:03:00.876Z,9.60
2018-11-05T11:05:30.789Z,8.10
2018-11-05T11:08:00.487Z,9.50
2018-11-05T11:10:30.199Z,14.53
2018-11-05T11:13:00.282Z,8.60
2018-11-05T11:15:30.796Z,15.83
2018-11-05T11:17:59.691Z,9.30
2018-11-05T11:20:28.575Z,13.50
2018-11-05T11:22:57.507Z,12.07
2018-11-05T11:25:26.499Z,11.40
2018-11-05T11:27:55.567Z,13.67
2018-11-05T11:30:24.323Z,11.60
2018-11-05T11:32:53.668Z,10.97
2018-11-05T11:35:22.515Z,10.47
2018-11-05T11:37:51.616Z,10.03
2018-11-05T11:40:22.255Z,14.47
2018-11-05T11:42:51.146Z,16.70
2018-11-05T11:45:21.192Z,18.53
2018-11-05T11:47:50.113Z,14.20
2018-11-05T11:50:19.266Z,14.17
2018-11-05T11:52:49.751Z,17.27
2018-11-05T11:55:19.823Z,14.17
2018-11-05T11:57:49.285Z,12.27
2018-11-05T12:00:19.826Z,10.77
2018-11-05T12:02:49.252Z,13.93
2018-11-05T12:05:18.333Z,11.83
2018-11-05T12:07:48.292Z,11.77
2018-11-05T12:10:18.944Z,13.57
2018-11-05T12:12:48.918Z,12.93
2018-11-05T12:15:18.587Z,11.00
2018-11-05T12:17:48.683Z,8.40
2018-11-05T12:20:19.738Z,8.63
2018-11-05T12:22:49.244Z,13.60
2018-11-05T12:25:18.503Z,10.60
2018-11-05T12:27:47.870Z,13.27
2018-11-05T12:30:18.765Z,12.30
2018-11-05T12:32:49.718Z,21.23
2018-11-05T12:35:18.751Z,16.80
2018-11-05T12:37:48.935Z,10.20
2018-11-05T12:40:18.796Z,14.23
2018-11-05T12:42:48.668Z,12.20
2018-11-05T12:45:17.656Z,9.37
2018-11-05T12:47:46.747Z,15.73
2018-11-05T12:50:20.718Z,14.53
2018-11-05T12:52:50.926Z,12.53
2018-11-05T12:55:20.086Z,8.37
2018-11-05T12:57:50.676Z,14.17
2018-11-05T13:00:22.039Z,14.00
2018-11-05T13:02:53.847Z,11.27
2018-11-05T13:05:24.254Z,9.80
2018-11-05T13:07:53.311Z,12.23
2018-11-05T13:10:22.398Z,11.17
2018-11-05T13:12:53.424Z,11.37
2018-11-05T13:15:22.540Z,11.87
2018-11-05T13:17:51.372Z,9.40
2018-11-05T13:20:23.302Z,12.77
2018-11-05T13:22:52.288Z,10.95
2018-11-05T13:25:21.807Z,10.67
2018-11-05T13:27:51.444Z,12.97
2018-11-05T13:30:20.362Z,11.13
2018-11-05T13:32:49.306Z,12.90
2018-11-05T13:35:20.041Z,9.53
2018-11-05T13:37:49.667Z,9.97
2018-11-05T13:40:19.351Z,13.70
2018-11-05T13:42:48.672Z,12.23
2018-11-05T13:45:17.937Z,11.13
2018-11-05T13:47:47.696Z,9.00
2018-11-05T13:50:17.640Z,15.03
2018-11-05T13:52:46.259Z,18.00
2018-11-05T13:55:17.109Z,16.70
2018-11-05T13:57:47.085Z,17.70
2018-11-05T14:00:17.233Z,14.83
2018-11-05T14:02:46.183Z,15.70
2018-11-05T14:05:15.322Z,13.70
2018-11-05T14:07:44.319Z,14.73
2018-11-05T14:10:16.030Z,13.97
2018-11-05T14:12:47.332Z,12.20
2018-11-05T14:15:16.602Z,12.97
2018-11-05T14:17:45.838Z,14.90
2018-11-05T14:20:15.800Z,13.97
2018-11-05T14:22:44.680Z,13.77
2018-11-05T14:25:14.915Z,13.47
2018-11-05T14:27:45.013Z,14.07
2018-11-05T14:30:14.163Z,13.87
2018-11-05T14:32:44.217Z,11.70
2018-11-05T14:35:13.210Z,10.77
2018-11-05T14:37:42.491Z,10.97
2018-11-05T14:40:12.907Z,13.83
2018-11-05T14:42:41.783Z,17.77
2018-11-05T14:45:13.350Z,10.47
2018-11-05T14:47:44.928Z,12.07
2018-11-05T14:50:16.646Z,12.33
2018-11-05T14:52:46.111Z,9.07
2018-11-05T14:55:16.585Z,12.53
2018-11-05T14:57:47.325Z,12.03
2018-11-05T15:00:18.600Z,8.37
2018-11-05T15:02:48.907Z,9.93
2018-11-05T15:05:18.059Z,16.77
2018-11-05T15:07:48.375Z,10.23
2018-11-05T15:10:19.692Z,10.80
2018-11-05T15:12:50.548Z,10.47
2018-11-05T15:15:19.910Z,11.17
2018-11-05T15:17:49.071Z,11.97
2018-11-05T15:20:20.414Z,12.10
2018-11-05T15:22:49.285Z,18.37
2018-11-05T15:25:18.912Z,9.93
2018-11-05T15:27:47.808Z,13.23
2018-11-05T15:30:21.041Z,14.77
2018-11-05T15:32:50.219Z,14.23
2018-11-05T15:35:21.095Z,13.83
2018-11-05T15:37:49.987Z,16.27
2018-11-05T15:40:22.211Z,11.17
2018-11-05T15:42:51.158Z,13.27
2018-11-05T15:45:21.222Z,11.40
2018-11-05T15:47:50.156Z,10.87
2018-11-05T15:50:20.319Z,10.50
2018-11-05T15:52:49.702Z,15.70
2018-11-05T15:55:18.087Z,9.87
2018-11-05T15:57:46.980Z,10.87
2018-11-05T16:00:20.534Z,9.67
2018-11-05T16:02:51.318Z,11.27
2018-11-05T16:05:20.303Z,9.93
2018-11-05T16:07:49.193Z,9.40
2018-11-05T16:10:18.326Z,11.53
2018-11-05T16:12:48.435Z,12.33
2018-11-05T16:15:17.351Z,13.17
2018-11-05T16:17:46.288Z,10.40
2018-11-05T16:20:16.655Z,11.03
2018-11-05T16:22:46.135Z,9.20
2018-11-05T16:25:15.856Z,10.83
2018-11-05T16:27:46.067Z,16.80
2018-11-05T16:30:16.385Z,14.43
2018-11-05T16:32:45.799Z,11.40
2018-11-05T16:35:16.236Z,11.17
2018-11-05T16:37:45.146Z,10.23
2018-11-05T16:40:15.369Z,14.30
2018-11-05T16:42:45.187Z,15.13
2018-11-05T16:45:14.098Z,11.40
2018-11-05T16:47:43.794Z,15.13
2018-11-05T16:50:14.617Z,15.30
2018-11-05T16:52:43.500Z,10.63
2018-11-05T16:55:13.445Z,14.67
2018-11-05T16:57:43.185Z,13.10
2018-11-05T17:00:12.806Z,9.83
2018-11-05T17:02:42.283Z,12.40
2018-11-05T17:05:10.931Z,11.20
2018-11-05T17:07:40.007Z,11.27
2018-11-05T17:10:10.682Z,13.97
2018-11-05T17:12:41.750Z,17.23
2018-11-05T17:15:12.204Z,13.67
2018-11-05T17:17:41.299Z,11.47
2018-11-05T17:20:11.631Z,9.03
2018-11-05T17:22:41.014Z,10.53
2018-11-05T17:25:11.535Z,13.37
2018-11-05T17:27:42.463Z,11.87
2018-11-05T17:30:15.602Z,11.00
2018-11-05T17:32:44.890Z,11.93
2018-11-05T17:35:14.417Z,10.70
2018-11-05T17:37:43.663Z,10.40
2018-11-05T17:40:14.043Z,12.90
2018-11-05T17:42:43.094Z,12.33
2018-11-05T17:45:14.524Z,11.27
2018-11-05T17:47:44.079Z,11.50
2018-11-05T17:50:14.551Z,11.03
2018-11-05T17:52:44.035Z,10.13
2018-11-05T17:55:13.467Z,10.23
2018-11-05T17:57:43.395Z,10.13
2018-11-05T18:00:15.369Z,8.97
2018-11-05T18:02:44.659Z,10.43
2018-11-05T18:05:13.637Z,9.07
2018-11-05T18:07:42.766Z,10.40
2018-11-05T18:10:14.389Z,11.50
2018-11-05T18:12:45.318Z,9.67
2018-11-05T18:15:14.200Z,10.43
2018-11-05T18:17:44.134Z,10.07
2018-11-05T18:20:15.248Z,7.93
2018-11-05T18:22:44.089Z,9.17
2018-11-05T18:25:15.110Z,9.93
2018-11-05T18:27:44.183Z,11.10
2018-11-05T18:30:13.705Z,10.47
2018-11-05T18:32:42.657Z,9.77
2018-11-05T18:35:12.867Z,10.50
2018-11-05T18:37:42.714Z,9.33
2018-11-05T18:40:13.315Z,10.70
2018-11-05T18:42:43.183Z,9.03
2018-11-05T18:45:12.700Z,9.13
2018-11-05T18:47:41.774Z,8.47
2018-11-05T18:50:12.325Z,10.67
2018-11-05T18:52:41.340Z,8.80
2018-11-05T18:55:11.666Z,9.63
2018-11-05T18:57:40.825Z,9.43
2018-11-05T19:00:15.852Z,10.50
2018-11-05T19:02:46.615Z,11.07
2018-11-05T19:05:15.642Z,10.63
2018-11-05T19:07:44.505Z,9.33
2018-11-05T19:10:13.581Z,8.27
2018-11-05T19:12:44.156Z,8.43
2018-11-05T19:15:15.022Z,10.30
2018-11-05T19:17:44.751Z,9.87
2018-11-05T19:20:13.623Z,10.37
2018-11-05T19:22:43.237Z,8.23
2018-11-05T19:25:13.218Z,10.50
2018-11-05T19:27:42.672Z,10.17
2018-11-05T19:30:16.060Z,8.63
2018-11-05T19:32:45.352Z,9.87
2018-11-05T19:35:14.268Z,10.97
2018-11-05T19:37:43.905Z,8.23
2018-11-05T19:40:13.675Z,8.57
2018-11-05T19:42:44.428Z,10.40
2018-11-05T19:45:15.043Z,9.47
2018-11-05T19:47:43.935Z,8.83
2018-11-05T19:50:15.556Z,8.80
2018-11-05T19:52:45.287Z,8.40
2018-11-05T19:55:15.303Z,9.23
2018-11-05T19:57:45.099Z,8.20
2018-11-05T20:00:16.519Z,9.10
2018-11-05T20:02:47.005Z,8.33
2018-11-05T20:05:16.359Z,9.07
2018-11-05T20:07:48.229Z,8.77
2018-11-05T20:10:17.152Z,8.97
2018-11-05T20:12:47.453Z,8.33
2018-11-05T20:15:16.765Z,11.30
2018-11-05T20:17:46.475Z,9.13
2018-11-05T20:20:16.581Z,8.47
2018-11-05T20:22:45.496Z,7.97
2018-11-05T20:25:14.364Z,8.27
2018-11-05T20:27:43.382Z,8.10
2018-11-05T20:30:18.403Z,8.77
2018-11-05T20:32:49.222Z,8.57
2018-11-05T20:35:18.684Z,8.57
2018-11-05T20:37:47.535Z,9.20
2018-11-05T20:40:17.483Z,8.13
2018-11-05T20:42:49.900Z,9.50
2018-11-05T20:45:19.323Z,11.03
2018-11-05T20:47:48.193Z,8.00
2018-11-05T20:50:17.764Z,8.83
2018-11-05T20:52:46.709Z,10.37
2018-11-05T20:55:16.626Z,7.77
2018-11-05T20:57:45.543Z,8.63
2018-11-05T21:00:16.775Z,7.90
2018-11-05T21:02:45.647Z,8.90
2018-11-05T21:05:14.514Z,8.27
2018-11-05T21:07:43.865Z,7.80
2018-11-05T21:10:13.767Z,7.77
2018-11-05T21:12:44.487Z,7.93
2018-11-05T21:15:16.571Z,8.33
2018-11-05T21:17:46.568Z,7.93
2018-11-05T21:20:15.705Z,9.40
2018-11-05T21:22:45.171Z,9.30
2018-11-05T21:25:13.867Z,8.27
2018-11-05T21:27:43.268Z,8.87
2018-11-05T21:30:14.304Z,7.80
2018-11-05T21:32:44.435Z,8.27
2018-11-05T21:35:14.544Z,8.30
2018-11-05T21:37:43.650Z,7.30
2018-11-05T21:40:13.887Z,7.87
2018-11-05T21:42:42.763Z,8.80
2018-11-05T21:45:13.597Z,7.40
2018-11-05T21:47:43.003Z,7.60
2018-11-05T21:50:13.441Z,8.37
2018-11-05T21:52:42.931Z,6.90
2018-11-05T21:55:12.927Z,7.93
2018-11-05T21:57:42.963Z,7.53
2018-11-05T22:00:14.323Z,8.43
2018-11-05T22:02:48.604Z,7.97
2018-11-05T22:05:17.723Z,7.70
2018-11-05T22:07:47.439Z,8.13
2018-11-05T22:10:16.279Z,7.93
2018-11-05T22:12:47.241Z,8.23
2018-11-05T22:15:16.095Z,8.37
2018-11-05T22:17:45.133Z,7.57
2018-11-05T22:20:14.366Z,7.67
2018-11-05T22:22:43.287Z,9.23
2018-11-05T22:25:13.132Z,7.67
2018-11-05T22:27:41.974Z,7.77
2018-11-05T22:30:11.551Z,7.90
2018-11-05T22:32:40.416Z,8.13
2018-11-05T22:35:09.301Z,8.93
2018-11-05T22:37:38.312Z,7.97
2018-11-05T22:40:09.531Z,7.43
2018-11-05T22:42:38.375Z,7.20
2018-11-05T22:45:07.796Z,7.63
2018-11-05T22:47:38.675Z,7.80
2018-11-05T22:50:08.092Z,9.40
2018-11-05T22:52:36.997Z,7.10
2018-11-05T22:55:06.351Z,9.13
2018-11-05T22:57:35.241Z,8.17
2018-11-05T23:00:06.847Z,7.57
2018-11-05T23:02:35.673Z,7.00
2018-11-05T23:05:04.868Z,7.13
2018-11-05T23:07:33.926Z,7.43
2018-11-05T23:10:02.796Z,8.33
2018-11-05T23:12:32.905Z,7.33
2018-11-05T23:15:02.611Z,7.60
2018-11-05T23:17:31.463Z,8.23
2018-11-05T23:20:00.398Z,7.77
2018-11-05T23:22:29.338Z,8.60
2018-11-05T23:24:58.187Z,7.73
2018-11-05T23:27:27.270Z,7.67
2018-11-05T23:29:56.563Z,7.10
2018-11-05T23:32:25.461Z,7.93
2018-11-05T23:34:54.388Z,8.33
2018-11-05T23:37:23.251Z,6.70
2018-11-05T23:39:53.973Z,7.47
2018-11-05T23:42:22.822Z,7.50
2018-11-05T23:44:51.683Z,7.43
2018-11-05T23:47:20.595Z,7.67
2018-11-05T23:49:49.642Z,7.43
2018-11-05T23:52:18.636Z,9.33
2018-11-05T23:54:47.436Z,7.03
2018-11-05T23:57:16.287Z,8.83
2018-11-05T23:59:45.135Z,6.97
